Wichita Mid Continent Airport
KICT : now visible

Airfield :











YOU CAN JOIN US ON...

 
LOGIN :

Register | Disclaimer

   EN    FR    IT 

 









Legend :    VFR   Marginal VFR   IFR   Intensive IFR   Very Intensive IFR
Visi :
Ceiling :
>= 8 km
>= 3000ft
5 to 8 km
1000 to 3000 ft
1500m to 5 km
500 to 1000 ft
800 to 1500m
200 to 500 ft
< 800m
< 200 ft
Symbols :   Thunderstorms  Fog  Heavy snow  Heavy precipitations  Wind > 20 kt






- Airport Elevation : 1333 ft
- IATA code : ICT


KICT - Wichita Mid Continent

CURRENT METAR :
  • 301553Z 15014G22KT 10SM FEW200 SCT250 26/13 A3019 RMK AO2 SLP210 T02560128

EXPIRED METARs :
  • 301453Z 15010KT 10SM FEW200 SCT250 24/12 A3020 RMK AO2 SLP214 T02390122 50006
  • 301353Z 14009KT 10SM SCT200 BKN250 21/13 A3020 RMK AO2 SLP216 T02110128

TAF KICT
Valid from the 30 at 12:00 until the 31 at 12:00 UTC


301127Z 3012/3112 13006KT P6SM FEW250
FM301600 16014G20KT P6SM FEW120
FM310200 14012KT P6SM BKN120
KZKC FIR / North America



MET'MAP, your aeronautical weather chart ! - Copyright ORBIFLY December 2007 - Disclaimer

ORBIFLY MET'MAP TEAM :

Programming & Development : Alexandra Zaïnal
Concept & original design : Baudouin d'Aumeries
Assistance for programming : Marc-Olivier Méhu
Technical & hardware support : Manuel Goepfert

Contact : metmap@orbifly.com




SOURCES & CREDITS :

   NOAA       Earth
Advisory